createdAt,value
2019-03-12T00:01:56.468Z,53.22
2019-03-12T00:04:27.696Z,53.32
2019-03-12T00:06:59.109Z,53.34
2019-03-12T00:09:30.257Z,53.17
2019-03-12T00:12:01.622Z,53.70
2019-03-12T00:14:32.792Z,53.87
2019-03-12T00:17:03.840Z,54.02
2019-03-12T00:19:36.002Z,54.50
2019-03-12T00:22:07.253Z,54.53
2019-03-12T00:24:38.600Z,54.85
2019-03-12T00:27:09.789Z,54.85
2019-03-12T00:29:40.941Z,54.78
2019-03-12T00:32:12.160Z,54.55
2019-03-12T00:34:43.193Z,54.73
2019-03-12T00:37:14.566Z,53.92
2019-03-12T00:39:45.640Z,54.25
2019-03-12T00:42:16.752Z,54.14
2019-03-12T00:44:48.046Z,54.47
2019-03-12T00:47:19.111Z,54.54
2019-03-12T00:49:50.137Z,54.01
2019-03-12T00:52:21.349Z,53.85
2019-03-12T00:54:52.638Z,53.90
2019-03-12T00:57:23.910Z,54.03
2019-03-12T00:59:56.512Z,54.07
2019-03-12T01:02:29.229Z,53.59
2019-03-12T01:05:00.504Z,53.50
2019-03-12T01:07:31.837Z,53.49
2019-03-12T01:10:02.981Z,53.05
2019-03-12T01:12:34.334Z,52.96
2019-03-12T01:15:07.367Z,52.94
2019-03-12T01:17:38.400Z,52.65
2019-03-12T01:20:12.199Z,52.43
2019-03-12T01:22:43.259Z,52.37
2019-03-12T01:25:14.576Z,52.31
2019-03-12T01:27:45.683Z,52.21
2019-03-12T01:30:17.758Z,52.30
2019-03-12T01:32:49.278Z,52.26
2019-03-12T01:35:20.342Z,52.11
2019-03-12T01:37:51.768Z,52.21
2019-03-12T01:40:22.948Z,51.77
2019-03-12T01:42:54.113Z,52.20
2019-03-12T01:45:25.177Z,51.64
2019-03-12T01:47:56.481Z,51.80
2019-03-12T01:50:28.656Z,51.73
2019-03-12T01:52:59.761Z,51.61
2019-03-12T01:55:30.648Z,51.62
2019-03-12T01:58:01.958Z,51.40
2019-03-12T02:00:33.143Z,51.75
2019-03-12T02:03:05.597Z,52.24
2019-03-12T02:05:38.361Z,51.72
2019-03-12T02:08:09.548Z,51.92
2019-03-12T02:10:40.826Z,52.33
2019-03-12T02:13:12.049Z,52.07
2019-03-12T02:15:43.236Z,52.29
2019-03-12T02:18:14.428Z,52.36
2019-03-12T02:20:45.625Z,52.49
2019-03-12T02:23:17.023Z,52.02
2019-03-12T02:25:48.206Z,52.11
2019-03-12T02:28:20.727Z,52.01
2019-03-12T02:30:52.184Z,52.48
2019-03-12T02:33:23.575Z,51.86
2019-03-12T02:35:54.939Z,52.32
2019-03-12T02:38:26.084Z,52.12
2019-03-12T02:40:57.268Z,52.18
2019-03-12T02:43:28.397Z,51.91
2019-03-12T02:45:59.537Z,52.26
2019-03-12T02:48:30.646Z,52.09
2019-03-12T02:51:02.038Z,51.83
2019-03-12T02:53:33.254Z,51.97
2019-03-12T02:56:04.368Z,51.89
2019-03-12T02:58:35.485Z,52.04
2019-03-12T03:01:08.059Z,52.10
2019-03-12T03:03:39.212Z,52.11
2019-03-12T03:06:11.838Z,52.20
2019-03-12T03:08:43.288Z,52.18
2019-03-12T03:11:14.443Z,52.62
2019-03-12T03:13:45.544Z,52.10
2019-03-12T03:16:16.815Z,52.14
2019-03-12T03:18:48.199Z,52.02
2019-03-12T03:21:19.182Z,52.50
2019-03-12T03:23:50.532Z,51.87
2019-03-12T03:26:21.643Z,52.16
2019-03-12T03:28:52.835Z,51.89
2019-03-12T03:31:24.021Z,51.66
2019-03-12T03:33:55.245Z,51.74
2019-03-12T03:36:26.370Z,51.79
2019-03-12T03:38:57.436Z,51.45
2019-03-12T03:41:28.558Z,51.50
2019-03-12T03:43:59.800Z,51.58
2019-03-12T03:46:30.858Z,51.67
2019-03-12T03:49:02.065Z,51.61
2019-03-12T03:51:33.119Z,51.33
2019-03-12T03:54:05.080Z,51.43
2019-03-12T03:56:36.155Z,51.60
2019-03-12T03:59:07.363Z,51.15
2019-03-12T04:01:38.430Z,50.81
2019-03-12T04:04:09.706Z,51.10
2019-03-12T04:06:40.717Z,51.38
2019-03-12T04:09:12.086Z,51.02
2019-03-12T04:11:43.350Z,50.96
2019-03-12T04:14:14.574Z,50.98
2019-03-12T04:16:45.726Z,50.93
2019-03-12T04:19:16.765Z,50.82
2019-03-12T04:21:47.881Z,50.87
2019-03-12T04:24:19.127Z,50.92
2019-03-12T04:26:51.792Z,50.91
2019-03-12T04:29:22.967Z,50.74
2019-03-12T04:31:54.127Z,50.98
2019-03-12T04:34:25.068Z,50.74
2019-03-12T04:36:56.226Z,50.88
2019-03-12T04:39:27.325Z,50.84
2019-03-12T04:41:58.518Z,50.24
2019-03-12T04:44:29.689Z,50.38
2019-03-12T04:47:00.787Z,50.28
2019-03-12T04:49:32.181Z,50.28
2019-03-12T04:52:03.558Z,50.24
2019-03-12T04:54:34.805Z,49.94
2019-03-12T04:57:06.033Z,49.88
2019-03-12T04:59:37.295Z,50.04
2019-03-12T05:02:08.667Z,49.82
2019-03-12T05:04:39.846Z,49.92
2019-03-12T05:07:12.470Z,49.77
2019-03-12T05:09:44.359Z,49.75
2019-03-12T05:12:15.553Z,49.58
2019-03-12T05:14:46.912Z,49.61
2019-03-12T05:17:18.122Z,49.69
2019-03-12T05:19:49.428Z,49.54
2019-03-12T05:22:20.654Z,49.64
2019-03-12T05:24:52.048Z,49.62
2019-03-12T05:27:24.969Z,49.93
2019-03-12T05:29:59.146Z,49.55
2019-03-12T05:32:30.323Z,49.20
2019-03-12T05:35:01.561Z,49.38
2019-03-12T05:37:32.834Z,49.13
2019-03-12T05:40:07.007Z,49.00
2019-03-12T05:42:38.196Z,49.18
2019-03-12T05:45:17.539Z,48.81
2019-03-12T05:47:48.839Z,48.55
2019-03-12T05:50:21.787Z,49.05
2019-03-12T05:53:05.199Z,49.84
2019-03-12T05:55:36.604Z,49.67
2019-03-12T05:58:08.477Z,50.08
2019-03-12T06:00:39.814Z,49.74
2019-03-12T06:03:11.484Z,50.34
2019-03-12T06:05:43.845Z,50.80
2019-03-12T06:08:15.240Z,51.10
2019-03-12T06:10:46.688Z,50.75
2019-03-12T06:13:17.916Z,50.87
2019-03-12T06:15:49.238Z,50.88
2019-03-12T06:18:20.407Z,51.20
2019-03-12T06:20:51.549Z,51.07
2019-03-12T06:23:22.878Z,50.58
2019-03-12T06:25:54.788Z,49.60
2019-03-12T06:28:25.918Z,49.88
2019-03-12T06:31:11.074Z,49.86
2019-03-12T06:33:49.788Z,49.49
2019-03-12T06:36:37.803Z,48.88
2019-03-12T06:39:29.996Z,49.07
2019-03-12T06:42:18.941Z,49.22
2019-03-12T06:44:51.857Z,48.93
2019-03-12T06:47:24.733Z,49.11
2019-03-12T06:50:00.463Z,48.95
2019-03-12T06:52:33.353Z,49.12
2019-03-12T06:55:19.607Z,49.56
2019-03-12T06:57:58.623Z,49.71
2019-03-12T07:00:32.610Z,49.22
2019-03-12T07:03:08.467Z,48.97
2019-03-12T07:05:50.302Z,48.69
2019-03-12T07:08:35.047Z,50.43
2019-03-12T07:11:13.697Z,49.06
2019-03-12T07:13:49.688Z,48.56
2019-03-12T07:16:22.647Z,48.56
2019-03-12T07:18:58.372Z,48.19
2019-03-12T07:21:34.306Z,47.54
2019-03-12T07:24:13.481Z,47.28
2019-03-12T07:26:58.579Z,47.11
2019-03-12T07:29:46.872Z,47.49
2019-03-12T07:32:19.698Z,47.34
2019-03-12T07:34:53.013Z,47.67
2019-03-12T07:37:28.994Z,47.34
2019-03-12T07:40:08.092Z,47.97
2019-03-12T07:42:41.504Z,46.50
2019-03-12T07:45:17.249Z,47.01
2019-03-12T07:47:53.297Z,46.56
2019-03-12T07:50:26.401Z,46.47
2019-03-12T07:53:02.202Z,46.73
2019-03-12T07:55:47.179Z,47.32
2019-03-12T07:58:19.948Z,46.99
2019-03-12T08:01:04.937Z,47.18
2019-03-12T08:03:59.087Z,46.96
2019-03-12T08:06:46.328Z,46.70
2019-03-12T08:09:35.408Z,47.08
2019-03-12T08:12:08.322Z,46.97
2019-03-12T08:14:47.301Z,46.69
2019-03-12T08:17:26.053Z,47.24
2019-03-12T08:20:01.518Z,47.30
2019-03-12T08:22:34.434Z,46.94
2019-03-12T08:25:13.026Z,46.45
2019-03-12T08:27:45.968Z,46.73
2019-03-12T08:30:21.872Z,46.75
2019-03-12T08:33:10.936Z,46.48
2019-03-12T08:35:56.153Z,45.93
2019-03-12T08:38:30.113Z,45.93
2019-03-12T08:41:02.977Z,46.80
2019-03-12T08:43:40.377Z,45.92
2019-03-12T08:46:25.574Z,45.43
2019-03-12T08:48:59.983Z,45.95
2019-03-12T08:51:38.987Z,44.50
2019-03-12T08:54:14.665Z,44.19
2019-03-12T08:56:50.535Z,43.51
2019-03-12T08:59:33.376Z,43.96
2019-03-12T09:02:15.385Z,43.17
2019-03-12T09:04:56.928Z,43.08
2019-03-12T09:07:32.592Z,42.52
2019-03-12T09:10:15.294Z,41.50
2019-03-12T09:13:04.210Z,41.45
2019-03-12T09:15:46.411Z,41.39
2019-03-12T09:18:35.665Z,40.24
2019-03-12T09:21:08.500Z,40.17
2019-03-12T09:23:44.276Z,40.07
2019-03-12T09:26:32.378Z,40.08
2019-03-12T09:29:08.247Z,40.07
2019-03-12T09:31:50.449Z,39.86
2019-03-12T09:34:23.281Z,39.07
2019-03-12T09:36:56.289Z,39.34
2019-03-12T09:39:32.293Z,40.81
2019-03-12T09:42:05.447Z,39.88
2019-03-12T09:44:38.412Z,40.21
2019-03-12T09:47:17.034Z,39.83
2019-03-12T09:49:55.912Z,39.87
2019-03-12T09:52:41.358Z,40.38
2019-03-12T09:55:19.947Z,39.36
2019-03-12T09:57:52.703Z,39.69
2019-03-12T10:00:34.622Z,39.31
2019-03-12T10:03:10.247Z,38.27
2019-03-12T10:05:51.737Z,38.32
2019-03-12T10:08:30.390Z,39.28
2019-03-12T10:11:09.544Z,38.49
2019-03-12T10:13:43.242Z,38.93
2019-03-12T10:16:32.589Z,38.41
2019-03-12T10:19:05.597Z,38.72
2019-03-12T10:21:38.311Z,36.44
2019-03-12T10:24:17.931Z,36.26
2019-03-12T10:26:53.509Z,37.73
2019-03-12T10:29:29.206Z,38.31
2019-03-12T10:32:01.935Z,38.08
2019-03-12T10:34:34.774Z,38.04
2019-03-12T10:37:12.511Z,38.61
2019-03-12T10:40:06.677Z,38.40
2019-03-12T10:42:55.122Z,39.46
2019-03-12T10:45:28.186Z,38.81
2019-03-12T10:48:04.076Z,39.26
2019-03-12T10:50:35.500Z,38.45
2019-03-12T10:53:06.635Z,37.40
2019-03-12T10:55:37.834Z,38.28
2019-03-12T10:58:09.107Z,37.87
2019-03-12T11:00:40.884Z,37.44
2019-03-12T11:03:12.087Z,34.57
2019-03-12T11:05:46.244Z,32.13
2019-03-12T11:08:15.831Z,33.15
2019-03-12T11:10:46.946Z,35.00
2019-03-12T11:13:18.112Z,33.62
2019-03-12T11:15:49.273Z,35.00
2019-03-12T11:18:20.583Z,36.33
2019-03-12T11:20:51.810Z,36.83
2019-03-12T11:23:22.973Z,36.88
2019-03-12T11:25:54.253Z,37.08
2019-03-12T11:28:28.394Z,37.41
2019-03-12T11:30:59.572Z,36.93
2019-03-12T11:33:30.786Z,36.78
2019-03-12T11:36:01.874Z,36.73
2019-03-12T11:38:33.750Z,36.74
2019-03-12T11:41:05.089Z,36.63
2019-03-12T11:43:36.123Z,37.74
2019-03-12T11:46:07.291Z,36.78
2019-03-12T11:48:38.443Z,36.48
2019-03-12T11:51:09.773Z,35.58
2019-03-12T11:53:41.605Z,36.54
2019-03-12T11:56:12.910Z,37.73
2019-03-12T12:02:28.051Z,36.57
2019-03-12T12:04:59.291Z,35.81
2019-03-12T12:07:32.624Z,35.79
2019-03-12T12:10:07.585Z,35.75
2019-03-12T12:12:40.086Z,36.45
2019-03-12T12:15:15.539Z,36.75
2019-03-12T12:17:49.229Z,36.42
2019-03-12T12:20:28.812Z,35.77
2019-03-12T12:22:52.371Z,35.80
2019-03-12T12:25:23.808Z,36.12
2019-03-12T12:27:55.172Z,36.25
2019-03-12T12:30:26.305Z,35.51
2019-03-12T12:32:59.043Z,36.08
2019-03-12T12:35:30.241Z,36.17
2019-03-12T12:38:01.943Z,36.41
2019-03-12T12:40:33.271Z,36.31
2019-03-12T12:43:04.493Z,36.27
2019-03-12T12:45:38.214Z,36.83
2019-03-12T12:48:09.291Z,37.13
2019-03-12T12:50:40.414Z,36.90
2019-03-12T12:53:11.650Z,36.71
2019-03-12T12:55:43.253Z,37.50
2019-03-12T12:58:14.556Z,37.56
2019-03-12T13:00:45.838Z,36.98
2019-03-12T13:03:16.854Z,38.02
2019-03-12T13:05:47.824Z,37.50
2019-03-12T13:08:19.368Z,36.88
2019-03-12T13:10:50.617Z,36.77
2019-03-12T13:13:21.741Z,37.13
2019-03-12T13:15:53.676Z,36.58
2019-03-12T13:18:24.924Z,36.73
2019-03-12T13:20:56.031Z,37.85
2019-03-12T13:23:27.187Z,37.81
2019-03-12T13:25:59.648Z,38.14
2019-03-12T13:28:30.819Z,37.37
2019-03-12T13:31:02.499Z,37.16
2019-03-12T13:33:35.221Z,37.25
2019-03-12T13:36:08.312Z,37.10
2019-03-12T13:38:45.436Z,37.34
2019-03-12T13:41:12.452Z,37.41
2019-03-12T13:43:44.636Z,36.94
2019-03-12T13:46:16.120Z,37.34
2019-03-12T13:48:47.274Z,37.88
2019-03-12T13:51:18.511Z,36.83
2019-03-12T13:53:49.917Z,36.66
2019-03-12T13:56:21.042Z,36.54
2019-03-12T13:58:52.577Z,36.61
2019-03-12T14:01:23.655Z,36.52
2019-03-12T14:03:54.959Z,36.86
2019-03-12T14:06:26.099Z,36.90
2019-03-12T14:08:57.326Z,36.87
2019-03-12T14:11:28.505Z,36.94
2019-03-12T14:13:59.684Z,36.65
2019-03-12T14:16:32.502Z,37.05
2019-03-12T14:19:03.987Z,37.85
2019-03-12T14:21:40.437Z,37.94
2019-03-12T14:24:11.543Z,38.46
2019-03-12T14:26:43.052Z,37.97
2019-03-12T14:29:14.477Z,38.34
2019-03-12T14:31:46.051Z,38.66
2019-03-12T14:34:17.599Z,39.01
2019-03-12T14:36:48.648Z,38.94
2019-03-12T14:39:20.235Z,37.89
2019-03-12T14:41:51.240Z,38.46
2019-03-12T14:44:22.319Z,38.56
2019-03-12T14:46:54.069Z,38.71
2019-03-12T14:49:25.533Z,39.11
2019-03-12T14:52:02.742Z,38.55
2019-03-12T14:54:34.062Z,38.73
2019-03-12T14:57:05.282Z,39.02
2019-03-12T14:59:36.613Z,39.14
2019-03-12T15:02:07.699Z,39.42
2019-03-12T15:04:38.892Z,40.01
2019-03-12T15:07:10.438Z,39.28
2019-03-12T15:09:41.692Z,38.68
2019-03-12T15:12:14.344Z,38.90
2019-03-12T15:14:45.677Z,38.87
2019-03-12T15:17:16.871Z,39.09
2019-03-12T15:19:48.030Z,39.53
2019-03-12T15:22:19.172Z,39.39
2019-03-12T15:24:50.328Z,38.97
2019-03-12T15:27:21.404Z,38.96
2019-03-12T15:29:52.466Z,39.50
2019-03-12T15:32:24.571Z,39.09
2019-03-12T15:34:55.663Z,39.19
2019-03-12T15:37:29.662Z,39.12
2019-03-12T15:40:01.224Z,39.38
2019-03-12T15:42:33.913Z,39.25
2019-03-12T15:45:07.982Z,38.86
2019-03-12T15:47:39.211Z,39.00
2019-03-12T15:50:14.978Z,38.91
2019-03-12T15:52:46.163Z,39.70
2019-03-12T15:55:17.374Z,40.12
2019-03-12T15:57:48.806Z,40.17
2019-03-12T16:00:20.168Z,40.40
2019-03-12T16:02:51.521Z,39.38
2019-03-12T16:05:22.871Z,39.42
2019-03-12T16:07:55.348Z,39.82
2019-03-12T16:10:26.943Z,39.71
2019-03-12T16:12:58.379Z,40.49
2019-03-12T16:15:30.705Z,39.74
2019-03-12T16:18:02.011Z,40.87
2019-03-12T16:20:33.334Z,41.05
2019-03-12T16:23:04.734Z,41.55
2019-03-12T16:25:35.989Z,41.15
2019-03-12T16:28:07.537Z,40.96
2019-03-12T16:30:39.154Z,41.13
2019-03-12T16:33:10.423Z,41.05
2019-03-12T16:35:41.801Z,40.92
2019-03-12T16:38:13.401Z,40.87
2019-03-12T16:40:44.867Z,40.66
2019-03-12T16:43:16.232Z,40.19
2019-03-12T16:45:47.723Z,40.46
2019-03-12T16:48:19.102Z,40.36
2019-03-12T16:50:50.247Z,40.30
2019-03-12T16:53:21.580Z,40.32
2019-03-12T16:55:52.900Z,40.09
2019-03-12T16:58:24.229Z,39.79
2019-03-12T17:00:55.680Z,39.94
2019-03-12T17:03:27.069Z,40.33
2019-03-12T17:05:58.470Z,40.02
2019-03-12T17:08:29.816Z,40.48
2019-03-12T17:11:03.079Z,40.26
2019-03-12T17:13:34.643Z,40.35
2019-03-12T17:16:06.127Z,40.35
2019-03-12T17:18:37.720Z,40.65
2019-03-12T17:21:09.352Z,40.47
2019-03-12T17:23:40.871Z,40.50
2019-03-12T17:26:12.264Z,40.88
2019-03-12T17:28:44.963Z,40.95
2019-03-12T17:31:16.907Z,41.01
2019-03-12T17:33:48.600Z,41.09
2019-03-12T17:36:21.157Z,40.77
2019-03-12T17:38:52.592Z,40.80
2019-03-12T17:41:25.154Z,40.61
2019-03-12T17:43:57.892Z,40.50
2019-03-12T17:46:29.515Z,40.61
2019-03-12T17:49:00.626Z,40.46
2019-03-12T17:51:31.970Z,40.40
2019-03-12T17:54:03.244Z,39.99
2019-03-12T17:56:34.617Z,40.19
2019-03-12T17:59:06.091Z,39.97
2019-03-12T18:01:37.586Z,39.93
2019-03-12T18:04:08.906Z,40.10
2019-03-12T18:06:40.405Z,40.79
2019-03-12T18:09:11.828Z,39.66
2019-03-12T18:11:44.106Z,39.46
2019-03-12T18:14:15.607Z,39.76
2019-03-12T18:16:47.005Z,40.18
2019-03-12T18:19:18.386Z,40.87
2019-03-12T18:21:49.910Z,41.13
2019-03-12T18:24:21.489Z,41.47
2019-03-12T18:26:53.075Z,41.13
2019-03-12T18:29:25.661Z,41.65
2019-03-12T18:31:57.096Z,41.81
2019-03-12T18:34:28.667Z,41.71
2019-03-12T18:37:00.235Z,41.47
2019-03-12T18:39:32.686Z,41.55
2019-03-12T18:42:04.421Z,41.42
2019-03-12T18:44:36.068Z,41.46
2019-03-12T18:47:08.712Z,41.48
2019-03-12T18:49:50.836Z,41.70
2019-03-12T18:52:22.389Z,41.46
2019-03-12T18:54:53.648Z,41.70
2019-03-12T18:57:26.784Z,41.88
2019-03-12T18:59:58.190Z,41.79
2019-03-12T19:02:29.588Z,42.67
2019-03-12T19:05:01.053Z,42.38
2019-03-12T19:07:32.463Z,42.60
2019-03-12T19:10:03.868Z,42.08
2019-03-12T19:12:35.353Z,41.73
2019-03-12T19:15:12.034Z,42.01
2019-03-12T19:17:43.414Z,42.26
2019-03-12T19:20:18.367Z,42.36
2019-03-12T19:22:50.071Z,42.13
2019-03-12T19:25:27.554Z,42.42
2019-03-12T19:28:00.667Z,42.29
2019-03-12T19:30:33.229Z,43.13
2019-03-12T19:33:16.783Z,42.94
2019-03-12T19:35:49.594Z,43.04
2019-03-12T19:38:21.117Z,44.02
2019-03-12T19:40:57.119Z,43.44
2019-03-12T19:43:28.757Z,43.37
2019-03-12T19:46:00.497Z,43.14
2019-03-12T19:48:32.046Z,43.73
2019-03-12T19:51:03.681Z,43.29
2019-03-12T19:53:35.223Z,43.14
2019-03-12T19:56:09.178Z,44.00
2019-03-12T19:58:40.835Z,43.90
2019-03-12T20:01:12.311Z,43.78
2019-03-12T20:03:43.754Z,43.58
2019-03-12T20:06:15.439Z,43.76
2019-03-12T20:08:47.304Z,44.42
2019-03-12T20:11:33.900Z,44.11
2019-03-12T20:14:29.974Z,43.93
2019-03-12T20:17:39.357Z,44.29
2019-03-12T20:20:37.482Z,44.40
2019-03-12T20:23:26.879Z,44.12
2019-03-12T20:26:10.686Z,43.66
2019-03-12T20:29:02.251Z,43.65
2019-03-12T20:32:01.301Z,43.81
2019-03-12T20:34:41.559Z,43.84
2019-03-12T20:37:49.622Z,43.87
2019-03-12T20:40:41.022Z,44.36
2019-03-12T20:43:27.669Z,47.23
2019-03-12T20:46:38.439Z,47.76
2019-03-12T20:49:37.342Z,47.83
2019-03-12T20:52:42.143Z,48.50
2019-03-12T20:55:31.811Z,46.62
2019-03-12T20:58:11.510Z,46.51
2019-03-12T21:01:23.918Z,44.88
2019-03-12T21:04:18.000Z,44.70
2019-03-12T21:07:15.276Z,44.19
2019-03-12T21:10:09.433Z,44.25
2019-03-12T21:13:02.060Z,44.14
2019-03-12T21:15:45.800Z,44.61
2019-03-12T21:18:42.795Z,44.08
2019-03-12T21:21:24.930Z,44.36
2019-03-12T21:24:35.510Z,44.05
2019-03-12T21:27:25.866Z,44.17
2019-03-12T21:29:56.125Z,43.98
2019-03-12T21:32:27.973Z,43.86
2019-03-12T21:35:02.445Z,43.63
2019-03-12T21:37:35.440Z,43.67
2019-03-12T21:40:09.710Z,43.53
2019-03-12T21:42:41.059Z,43.65
2019-03-12T21:45:12.412Z,44.41
2019-03-12T21:47:46.396Z,43.41
2019-03-12T21:50:19.515Z,43.28
2019-03-12T21:52:51.079Z,43.23
2019-03-12T21:55:22.738Z,42.91
2019-03-12T21:57:54.246Z,42.78
2019-03-12T22:00:25.991Z,42.64
2019-03-12T22:02:57.120Z,42.94
2019-03-12T22:05:28.624Z,42.65
2019-03-12T22:07:59.718Z,42.88
2019-03-12T22:10:31.122Z,42.76
2019-03-12T22:13:02.274Z,42.77
2019-03-12T22:15:34.588Z,43.12
2019-03-12T22:18:05.727Z,43.31
2019-03-12T22:20:37.460Z,43.42
2019-03-12T22:23:11.271Z,43.30
2019-03-12T22:25:42.888Z,43.20
2019-03-12T22:28:14.245Z,43.22
2019-03-12T22:30:49.747Z,42.90
2019-03-12T22:33:21.192Z,42.88
2019-03-12T22:35:52.591Z,43.15
2019-03-12T22:38:26.067Z,42.70
2019-03-12T22:40:57.460Z,42.86
2019-03-12T22:43:28.603Z,42.78
2019-03-12T22:45:59.787Z,42.71
2019-03-12T22:48:31.072Z,42.65
2019-03-12T22:51:02.259Z,42.40
2019-03-12T22:53:33.589Z,42.52
2019-03-12T22:56:04.978Z,42.67
2019-03-12T22:58:36.197Z,42.28
2019-03-12T23:01:25.018Z,42.82
2019-03-12T23:04:14.183Z,42.56
2019-03-12T23:07:03.143Z,41.74
2019-03-12T23:09:45.580Z,41.34
2019-03-12T23:12:22.284Z,41.31
2019-03-12T23:14:54.361Z,41.25
2019-03-12T23:17:28.020Z,41.21
2019-03-12T23:19:59.356Z,41.92
2019-03-12T23:22:31.343Z,41.65
2019-03-12T23:25:02.815Z,41.82
2019-03-12T23:27:35.850Z,41.71
2019-03-12T23:30:23.266Z,41.73
2019-03-12T23:32:54.595Z,42.00
2019-03-12T23:35:25.696Z,42.10
2019-03-12T23:37:57.010Z,41.65
2019-03-12T23:40:28.498Z,41.93
2019-03-12T23:43:00.405Z,41.86
2019-03-12T23:45:31.465Z,41.56
2019-03-12T23:48:02.648Z,41.71
2019-03-12T23:50:33.884Z,41.73
2019-03-12T23:53:05.096Z,41.54
2019-03-12T23:55:36.269Z,41.46
2019-03-12T23:58:07.626Z,41.61
